sensor_id;sensor_type;location;lat;lon;timestamp;temperature;humidity
37528;DHT22;23372;52.050;4.810;2023-08-24T00:00:41;17.00;99.90
37528;DHT22;23372;52.050;4.810;2023-08-24T00:03:08;16.90;99.90
37528;DHT22;23372;52.050;4.810;2023-08-24T00:05:37;17.00;99.90
37528;DHT22;23372;52.050;4.810;2023-08-24T00:08:06;17.00;99.90
37528;DHT22;23372;52.050;4.810;2023-08-24T00:10:32;17.10;99.90
37528;DHT22;23372;52.050;4.810;2023-08-24T00:12:58;17.20;99.90
37528;DHT22;23372;52.050;4.810;2023-08-24T00:15:23;17.20;99.90
37528;DHT22;23372;52.050;4.810;2023-08-24T00:17:49;17.20;99.90
37528;DHT22;23372;52.050;4.810;2023-08-24T00:20:15;17.20;99.90
37528;DHT22;23372;52.050;4.810;2023-08-24T00:22:41;17.30;99.90
37528;DHT22;23372;52.050;4.810;2023-08-24T00:25:07;17.40;99.90
37528;DHT22;23372;52.050;4.810;2023-08-24T00:27:33;17.30;99.90
37528;DHT22;23372;52.050;4.810;2023-08-24T00:29:59;17.40;99.90
37528;DHT22;23372;52.050;4.810;2023-08-24T00:32:24;17.40;99.90
37528;DHT22;23372;52.050;4.810;2023-08-24T00:34:50;17.40;99.90
37528;DHT22;23372;52.050;4.810;2023-08-24T00:37:16;17.50;99.90
37528;DHT22;23372;52.050;4.810;2023-08-24T00:39:41;17.40;99.90
37528;DHT22;23372;52.050;4.810;2023-08-24T00:42:07;17.40;99.90
37528;DHT22;23372;52.050;4.810;2023-08-24T00:44:33;17.40;99.90
37528;DHT22;23372;52.050;4.810;2023-08-24T00:46:59;17.50;99.90
37528;DHT22;23372;52.050;4.810;2023-08-24T00:49:25;17.40;99.90
37528;DHT22;23372;52.050;4.810;2023-08-24T00:51:51;17.30;99.90
37528;DHT22;23372;52.050;4.810;2023-08-24T00:54:17;17.40;99.90
37528;DHT22;23372;52.050;4.810;2023-08-24T00:56:44;17.40;99.90
37528;DHT22;23372;52.050;4.810;2023-08-24T00:59:10;17.40;99.90
37528;DHT22;23372;52.050;4.810;2023-08-24T01:01:35;17.50;99.90
37528;DHT22;23372;52.050;4.810;2023-08-24T01:04:01;17.30;99.90
37528;DHT22;23372;52.050;4.810;2023-08-24T01:06:28;17.50;99.90
37528;DHT22;23372;52.050;4.810;2023-08-24T01:08:54;17.50;99.90
37528;DHT22;23372;52.050;4.810;2023-08-24T01:14:35;17.20;99.90
37528;DHT22;23372;52.050;4.810;2023-08-24T01:17:04;17.20;99.90
37528;DHT22;23372;52.050;4.810;2023-08-24T01:19:57;17.30;99.90
37528;DHT22;23372;52.050;4.810;2023-08-24T01:22:31;17.30;99.90
37528;DHT22;23372;52.050;4.810;2023-08-24T01:25:10;17.30;99.90
37528;DHT22;23372;52.050;4.810;2023-08-24T01:27:38;17.40;99.90
37528;DHT22;23372;52.050;4.810;2023-08-24T01:30:04;17.50;99.90
37528;DHT22;23372;52.050;4.810;2023-08-24T01:32:31;17.60;99.90
37528;DHT22;23372;52.050;4.810;2023-08-24T01:34:58;17.60;99.90
37528;DHT22;23372;52.050;4.810;2023-08-24T01:37:23;17.60;99.90
37528;DHT22;23372;52.050;4.810;2023-08-24T01:39:55;17.60;99.90
37528;DHT22;23372;52.050;4.810;2023-08-24T01:42:26;17.60;99.90
37528;DHT22;23372;52.050;4.810;2023-08-24T01:44:55;17.60;99.90
37528;DHT22;23372;52.050;4.810;2023-08-24T01:47:21;17.70;99.90
37528;DHT22;23372;52.050;4.810;2023-08-24T01:49:48;17.70;99.90
37528;DHT22;23372;52.050;4.810;2023-08-24T01:52:14;17.70;99.90
37528;DHT22;23372;52.050;4.810;2023-08-24T01:54:40;17.60;99.90
37528;DHT22;23372;52.050;4.810;2023-08-24T01:57:06;17.50;99.90
37528;DHT22;23372;52.050;4.810;2023-08-24T01:59:32;17.50;99.90
37528;DHT22;23372;52.050;4.810;2023-08-24T02:01:57;17.70;99.90
37528;DHT22;23372;52.050;4.810;2023-08-24T02:04:23;17.60;99.90
37528;DHT22;23372;52.050;4.810;2023-08-24T02:06:48;17.40;99.90
37528;DHT22;23372;52.050;4.810;2023-08-24T02:09:14;17.30;99.90
37528;DHT22;23372;52.050;4.810;2023-08-24T02:11:39;17.40;99.90
37528;DHT22;23372;52.050;4.810;2023-08-24T02:14:05;17.20;99.90
37528;DHT22;23372;52.050;4.810;2023-08-24T02:16:31;17.10;99.90
37528;DHT22;23372;52.050;4.810;2023-08-24T02:18:56;17.10;99.90
37528;DHT22;23372;52.050;4.810;2023-08-24T02:21:22;17.00;99.90
37528;DHT22;23372;52.050;4.810;2023-08-24T02:23:47;17.10;99.90
37528;DHT22;23372;52.050;4.810;2023-08-24T02:26:13;17.20;99.90
37528;DHT22;23372;52.050;4.810;2023-08-24T02:28:38;17.30;99.90
37528;DHT22;23372;52.050;4.810;2023-08-24T02:31:04;17.20;99.90
37528;DHT22;23372;52.050;4.810;2023-08-24T02:33:31;17.30;99.90
37528;DHT22;23372;52.050;4.810;2023-08-24T02:35:57;17.20;99.90
37528;DHT22;23372;52.050;4.810;2023-08-24T02:38:23;17.20;99.90
37528;DHT22;23372;52.050;4.810;2023-08-24T02:40:49;17.20;99.90
37528;DHT22;23372;52.050;4.810;2023-08-24T02:43:15;17.10;99.90
37528;DHT22;23372;52.050;4.810;2023-08-24T02:45:40;17.20;99.90
37528;DHT22;23372;52.050;4.810;2023-08-24T02:48:06;17.20;99.90
37528;DHT22;23372;52.050;4.810;2023-08-24T02:50:31;17.20;99.90
37528;DHT22;23372;52.050;4.810;2023-08-24T02:52:57;17.10;99.90
37528;DHT22;23372;52.050;4.810;2023-08-24T02:55:27;17.00;99.90
37528;DHT22;23372;52.050;4.810;2023-08-24T02:57:52;17.10;99.90
37528;DHT22;23372;52.050;4.810;2023-08-24T03:00:18;17.00;99.90
37528;DHT22;23372;52.050;4.810;2023-08-24T03:02:43;17.00;99.90
37528;DHT22;23372;52.050;4.810;2023-08-24T03:05:09;16.90;99.90
37528;DHT22;23372;52.050;4.810;2023-08-24T03:07:35;16.90;99.90
37528;DHT22;23372;52.050;4.810;2023-08-24T03:10:00;16.90;99.90
37528;DHT22;23372;52.050;4.810;2023-08-24T03:12:26;16.90;99.90
37528;DHT22;23372;52.050;4.810;2023-08-24T03:14:52;17.10;99.90
37528;DHT22;23372;52.050;4.810;2023-08-24T03:17:18;17.00;99.90
37528;DHT22;23372;52.050;4.810;2023-08-24T03:19:44;16.90;99.90
37528;DHT22;23372;52.050;4.810;2023-08-24T03:22:10;17.10;99.90
37528;DHT22;23372;52.050;4.810;2023-08-24T03:24:35;16.90;99.90
37528;DHT22;23372;52.050;4.810;2023-08-24T03:27:01;16.90;99.90
37528;DHT22;23372;52.050;4.810;2023-08-24T03:29:27;16.90;99.90
37528;DHT22;23372;52.050;4.810;2023-08-24T03:31:53;16.80;99.90
37528;DHT22;23372;52.050;4.810;2023-08-24T03:34:19;16.90;99.90
37528;DHT22;23372;52.050;4.810;2023-08-24T03:36:46;17.00;99.90
37528;DHT22;23372;52.050;4.810;2023-08-24T03:39:13;16.90;99.90
37528;DHT22;23372;52.050;4.810;2023-08-24T03:41:39;17.00;99.90
37528;DHT22;23372;52.050;4.810;2023-08-24T03:44:05;17.00;99.90
37528;DHT22;23372;52.050;4.810;2023-08-24T03:46:31;16.90;99.90
37528;DHT22;23372;52.050;4.810;2023-08-24T03:48:56;16.90;99.90
37528;DHT22;23372;52.050;4.810;2023-08-24T03:51:22;16.90;99.90
37528;DHT22;23372;52.050;4.810;2023-08-24T03:53:47;16.80;99.90
37528;DHT22;23372;52.050;4.810;2023-08-24T03:56:13;16.80;99.90
37528;DHT22;23372;52.050;4.810;2023-08-24T03:58:38;16.70;99.90
37528;DHT22;23372;52.050;4.810;2023-08-24T04:01:04;16.70;99.90
37528;DHT22;23372;52.050;4.810;2023-08-24T04:03:32;16.60;99.90
37528;DHT22;23372;52.050;4.810;2023-08-24T04:05:57;16.70;99.90
37528;DHT22;23372;52.050;4.810;2023-08-24T04:08:23;16.60;99.90
37528;DHT22;23372;52.050;4.810;2023-08-24T04:10:49;16.60;99.90
37528;DHT22;23372;52.050;4.810;2023-08-24T04:13:14;16.60;99.90
37528;DHT22;23372;52.050;4.810;2023-08-24T04:15:40;16.60;99.90
37528;DHT22;23372;52.050;4.810;2023-08-24T04:18:05;16.60;99.90
37528;DHT22;23372;52.050;4.810;2023-08-24T04:20:31;16.60;99.90
37528;DHT22;23372;52.050;4.810;2023-08-24T04:22:56;16.60;99.90
37528;DHT22;23372;52.050;4.810;2023-08-24T04:25:22;16.60;99.90
37528;DHT22;23372;52.050;4.810;2023-08-24T04:27:48;16.70;99.90
37528;DHT22;23372;52.050;4.810;2023-08-24T04:30:13;16.70;99.90
37528;DHT22;23372;52.050;4.810;2023-08-24T04:32:39;16.70;99.90
37528;DHT22;23372;52.050;4.810;2023-08-24T04:35:05;16.80;99.90
37528;DHT22;23372;52.050;4.810;2023-08-24T04:37:31;16.70;99.90
37528;DHT22;23372;52.050;4.810;2023-08-24T04:39:57;16.70;99.90
37528;DHT22;23372;52.050;4.810;2023-08-24T04:42:22;16.70;99.90
37528;DHT22;23372;52.050;4.810;2023-08-24T04:44:48;16.70;99.90
37528;DHT22;23372;52.050;4.810;2023-08-24T04:47:13;16.80;99.90
37528;DHT22;23372;52.050;4.810;2023-08-24T04:49:39;16.80;99.90
37528;DHT22;23372;52.050;4.810;2023-08-24T04:52:04;16.90;99.90
37528;DHT22;23372;52.050;4.810;2023-08-24T04:54:30;17.00;99.90
37528;DHT22;23372;52.050;4.810;2023-08-24T04:56:56;17.00;99.90
37528;DHT22;23372;52.050;4.810;2023-08-24T04:59:21;16.90;99.90
37528;DHT22;23372;52.050;4.810;2023-08-24T05:01:47;16.90;99.90
37528;DHT22;23372;52.050;4.810;2023-08-24T05:04:12;17.00;99.90
37528;DHT22;23372;52.050;4.810;2023-08-24T05:06:38;16.90;99.90
37528;DHT22;23372;52.050;4.810;2023-08-24T05:09:04;16.80;99.90
37528;DHT22;23372;52.050;4.810;2023-08-24T05:11:30;17.00;99.90
37528;DHT22;23372;52.050;4.810;2023-08-24T05:13:55;17.00;99.90
37528;DHT22;23372;52.050;4.810;2023-08-24T05:16:21;16.90;99.90
37528;DHT22;23372;52.050;4.810;2023-08-24T05:18:47;17.10;99.90
37528;DHT22;23372;52.050;4.810;2023-08-24T05:21:14;17.00;99.90
37528;DHT22;23372;52.050;4.810;2023-08-24T05:23:40;17.10;99.90
37528;DHT22;23372;52.050;4.810;2023-08-24T05:26:05;17.30;99.90
37528;DHT22;23372;52.050;4.810;2023-08-24T05:28:31;17.30;99.90
37528;DHT22;23372;52.050;4.810;2023-08-24T05:30:58;17.40;99.90
37528;DHT22;23372;52.050;4.810;2023-08-24T05:33:24;17.40;99.90
37528;DHT22;23372;52.050;4.810;2023-08-24T05:35:51;17.40;99.90
37528;DHT22;23372;52.050;4.810;2023-08-24T05:38:17;17.60;99.90
37528;DHT22;23372;52.050;4.810;2023-08-24T05:40:45;17.70;99.90
37528;DHT22;23372;52.050;4.810;2023-08-24T05:43:12;17.60;99.90
37528;DHT22;23372;52.050;4.810;2023-08-24T05:45:37;17.80;99.90
37528;DHT22;23372;52.050;4.810;2023-08-24T05:48:05;17.80;99.90
37528;DHT22;23372;52.050;4.810;2023-08-24T05:50:31;18.10;99.90
37528;DHT22;23372;52.050;4.810;2023-08-24T05:52:56;18.00;99.90
37528;DHT22;23372;52.050;4.810;2023-08-24T05:55:22;18.10;99.90
37528;DHT22;23372;52.050;4.810;2023-08-24T05:57:48;18.10;99.90
37528;DHT22;23372;52.050;4.810;2023-08-24T06:00:14;18.10;99.90
37528;DHT22;23372;52.050;4.810;2023-08-24T06:02:40;18.20;99.90
37528;DHT22;23372;52.050;4.810;2023-08-24T06:05:06;18.30;99.90
37528;DHT22;23372;52.050;4.810;2023-08-24T06:07:33;18.40;99.90
37528;DHT22;23372;52.050;4.810;2023-08-24T06:09:58;18.60;99.90
37528;DHT22;23372;52.050;4.810;2023-08-24T06:12:24;18.50;99.90
37528;DHT22;23372;52.050;4.810;2023-08-24T06:14:50;18.50;99.90
37528;DHT22;23372;52.050;4.810;2023-08-24T06:17:15;18.70;99.90
37528;DHT22;23372;52.050;4.810;2023-08-24T06:19:41;18.80;99.90
37528;DHT22;23372;52.050;4.810;2023-08-24T06:22:07;18.80;99.90
37528;DHT22;23372;52.050;4.810;2023-08-24T06:24:32;19.00;99.90
37528;DHT22;23372;52.050;4.810;2023-08-24T06:26:58;19.10;99.90
37528;DHT22;23372;52.050;4.810;2023-08-24T06:29:24;19.20;99.90
37528;DHT22;23372;52.050;4.810;2023-08-24T06:31:49;19.40;99.90
37528;DHT22;23372;52.050;4.810;2023-08-24T06:34:15;19.40;99.90
37528;DHT22;23372;52.050;4.810;2023-08-24T06:36:40;19.50;99.90
37528;DHT22;23372;52.050;4.810;2023-08-24T06:39:06;19.70;99.90
37528;DHT22;23372;52.050;4.810;2023-08-24T06:41:35;20.00;99.90
37528;DHT22;23372;52.050;4.810;2023-08-24T06:44:01;20.30;99.90
37528;DHT22;23372;52.050;4.810;2023-08-24T06:46:27;20.50;99.90
37528;DHT22;23372;52.050;4.810;2023-08-24T06:48:53;20.50;99.90
37528;DHT22;23372;52.050;4.810;2023-08-24T06:51:18;20.70;99.90
37528;DHT22;23372;52.050;4.810;2023-08-24T06:53:44;20.80;99.90
37528;DHT22;23372;52.050;4.810;2023-08-24T06:56:12;20.80;99.90
37528;DHT22;23372;52.050;4.810;2023-08-24T06:58:39;21.00;99.90
37528;DHT22;23372;52.050;4.810;2023-08-24T07:01:05;21.40;99.90
37528;DHT22;23372;52.050;4.810;2023-08-24T07:03:31;22.30;99.90
37528;DHT22;23372;52.050;4.810;2023-08-24T07:05:58;23.80;99.90
37528;DHT22;23372;52.050;4.810;2023-08-24T07:08:24;25.20;99.90
37528;DHT22;23372;52.050;4.810;2023-08-24T07:10:50;26.50;99.90
37528;DHT22;23372;52.050;4.810;2023-08-24T07:13:15;27.10;99.90
37528;DHT22;23372;52.050;4.810;2023-08-24T07:15:41;28.40;99.90
37528;DHT22;23372;52.050;4.810;2023-08-24T07:18:07;29.30;99.90
37528;DHT22;23372;52.050;4.810;2023-08-24T07:20:34;30.50;99.90
37528;DHT22;23372;52.050;4.810;2023-08-24T07:23:00;31.40;99.90
37528;DHT22;23372;52.050;4.810;2023-08-24T07:25:25;31.80;99.90
37528;DHT22;23372;52.050;4.810;2023-08-24T07:27:53;32.30;99.90
37528;DHT22;23372;52.050;4.810;2023-08-24T07:30:23;32.60;99.90
37528;DHT22;23372;52.050;4.810;2023-08-24T07:32:49;33.10;99.90
37528;DHT22;23372;52.050;4.810;2023-08-24T07:35:14;33.30;99.90
37528;DHT22;23372;52.050;4.810;2023-08-24T07:37:41;33.60;99.90
37528;DHT22;23372;52.050;4.810;2023-08-24T07:40:07;33.80;99.90
37528;DHT22;23372;52.050;4.810;2023-08-24T07:42:43;34.50;99.90
37528;DHT22;23372;52.050;4.810;2023-08-24T07:45:09;34.00;99.90
37528;DHT22;23372;52.050;4.810;2023-08-24T07:47:35;34.00;99.90
37528;DHT22;23372;52.050;4.810;2023-08-24T07:50:00;34.20;99.90
37528;DHT22;23372;52.050;4.810;2023-08-24T07:52:26;34.30;99.90
37528;DHT22;23372;52.050;4.810;2023-08-24T07:54:54;33.60;99.90
37528;DHT22;23372;52.050;4.810;2023-08-24T07:57:20;32.10;99.90
37528;DHT22;23372;52.050;4.810;2023-08-24T07:59:46;31.10;99.90
37528;DHT22;23372;52.050;4.810;2023-08-24T08:02:12;30.40;99.90
37528;DHT22;23372;52.050;4.810;2023-08-24T08:04:37;30.30;99.90
37528;DHT22;23372;52.050;4.810;2023-08-24T08:07:03;30.20;99.90
37528;DHT22;23372;52.050;4.810;2023-08-24T08:09:28;29.30;99.90
37528;DHT22;23372;52.050;4.810;2023-08-24T08:11:54;29.10;99.90
37528;DHT22;23372;52.050;4.810;2023-08-24T08:14:20;28.50;99.90
37528;DHT22;23372;52.050;4.810;2023-08-24T08:16:45;28.20;99.90
37528;DHT22;23372;52.050;4.810;2023-08-24T08:19:11;27.60;99.90
37528;DHT22;23372;52.050;4.810;2023-08-24T08:21:36;27.40;99.90
37528;DHT22;23372;52.050;4.810;2023-08-24T08:24:02;27.20;99.90
37528;DHT22;23372;52.050;4.810;2023-08-24T08:26:28;27.10;99.90
37528;DHT22;23372;52.050;4.810;2023-08-24T08:28:54;26.70;99.90
37528;DHT22;23372;52.050;4.810;2023-08-24T08:31:20;26.10;99.90
37528;DHT22;23372;52.050;4.810;2023-08-24T08:33:45;25.70;99.90
37528;DHT22;23372;52.050;4.810;2023-08-24T08:36:11;25.60;99.90
37528;DHT22;23372;52.050;4.810;2023-08-24T08:38:36;25.30;99.90
37528;DHT22;23372;52.050;4.810;2023-08-24T08:41:03;25.30;99.90
37528;DHT22;23372;52.050;4.810;2023-08-24T08:43:29;25.20;99.90
37528;DHT22;23372;52.050;4.810;2023-08-24T08:45:59;25.10;99.90
37528;DHT22;23372;52.050;4.810;2023-08-24T08:48:25;25.30;99.90
37528;DHT22;23372;52.050;4.810;2023-08-24T08:50:51;25.40;99.90
37528;DHT22;23372;52.050;4.810;2023-08-24T08:53:21;25.70;99.90
37528;DHT22;23372;52.050;4.810;2023-08-24T08:55:47;25.70;99.90
37528;DHT22;23372;52.050;4.810;2023-08-24T08:58:13;25.60;99.90
37528;DHT22;23372;52.050;4.810;2023-08-24T09:00:39;25.90;99.90
37528;DHT22;23372;52.050;4.810;2023-08-24T09:03:06;26.10;99.90
37528;DHT22;23372;52.050;4.810;2023-08-24T09:05:32;26.20;99.90
37528;DHT22;23372;52.050;4.810;2023-08-24T09:07:58;25.70;99.90
37528;DHT22;23372;52.050;4.810;2023-08-24T09:10:25;26.00;99.90
37528;DHT22;23372;52.050;4.810;2023-08-24T09:12:50;26.10;99.90
37528;DHT22;23372;52.050;4.810;2023-08-24T09:15:27;26.10;99.90
37528;DHT22;23372;52.050;4.810;2023-08-24T09:17:53;26.30;99.90
37528;DHT22;23372;52.050;4.810;2023-08-24T09:20:20;26.50;99.90
37528;DHT22;23372;52.050;4.810;2023-08-24T09:22:45;26.40;99.90
37528;DHT22;23372;52.050;4.810;2023-08-24T09:25:11;26.60;99.90
37528;DHT22;23372;52.050;4.810;2023-08-24T09:27:37;26.50;99.90
37528;DHT22;23372;52.050;4.810;2023-08-24T09:30:03;26.30;99.90
37528;DHT22;23372;52.050;4.810;2023-08-24T09:32:31;26.00;99.90
37528;DHT22;23372;52.050;4.810;2023-08-24T09:35:06;26.20;99.90
37528;DHT22;23372;52.050;4.810;2023-08-24T09:37:34;26.10;99.90
37528;DHT22;23372;52.050;4.810;2023-08-24T09:40:04;26.10;99.90
37528;DHT22;23372;52.050;4.810;2023-08-24T09:42:37;26.00;99.90
37528;DHT22;23372;52.050;4.810;2023-08-24T09:45:04;25.60;99.90
37528;DHT22;23372;52.050;4.810;2023-08-24T09:47:30;25.50;99.90
37528;DHT22;23372;52.050;4.810;2023-08-24T09:49:55;25.20;99.90
37528;DHT22;23372;52.050;4.810;2023-08-24T09:52:21;25.00;99.90
37528;DHT22;23372;52.050;4.810;2023-08-24T09:54:50;24.90;99.90
37528;DHT22;23372;52.050;4.810;2023-08-24T09:57:17;24.70;99.90
37528;DHT22;23372;52.050;4.810;2023-08-24T09:59:43;24.60;99.90
37528;DHT22;23372;52.050;4.810;2023-08-24T10:02:17;24.40;99.90
37528;DHT22;23372;52.050;4.810;2023-08-24T10:04:46;24.20;99.90
37528;DHT22;23372;52.050;4.810;2023-08-24T10:07:15;24.00;99.90
37528;DHT22;23372;52.050;4.810;2023-08-24T10:10:18;23.80;99.90
37528;DHT22;23372;52.050;4.810;2023-08-24T10:12:41;23.50;99.90
37528;DHT22;23372;52.050;4.810;2023-08-24T10:15:09;23.30;99.90
37528;DHT22;23372;52.050;4.810;2023-08-24T10:17:37;23.20;99.90
37528;DHT22;23372;52.050;4.810;2023-08-24T10:20:05;23.10;99.90
37528;DHT22;23372;52.050;4.810;2023-08-24T10:22:35;23.00;99.90
37528;DHT22;23372;52.050;4.810;2023-08-24T10:25:04;22.90;99.90
37528;DHT22;23372;52.050;4.810;2023-08-24T10:27:30;22.80;99.90
37528;DHT22;23372;52.050;4.810;2023-08-24T10:29:57;22.80;99.90
37528;DHT22;23372;52.050;4.810;2023-08-24T10:32:26;22.80;99.90
37528;DHT22;23372;52.050;4.810;2023-08-24T10:34:52;22.70;99.90
37528;DHT22;23372;52.050;4.810;2023-08-24T10:37:25;22.80;99.90
37528;DHT22;23372;52.050;4.810;2023-08-24T10:39:51;23.00;99.90
37528;DHT22;23372;52.050;4.810;2023-08-24T10:42:16;23.20;99.90
37528;DHT22;23372;52.050;4.810;2023-08-24T10:44:46;23.30;99.90
37528;DHT22;23372;52.050;4.810;2023-08-24T10:47:15;23.40;99.90
37528;DHT22;23372;52.050;4.810;2023-08-24T10:49:45;23.50;99.90
37528;DHT22;23372;52.050;4.810;2023-08-24T10:54:52;23.90;99.90
37528;DHT22;23372;52.050;4.810;2023-08-24T10:57:27;24.20;99.90
37528;DHT22;23372;52.050;4.810;2023-08-24T11:00:06;24.30;99.90
37528;DHT22;23372;52.050;4.810;2023-08-24T11:02:45;24.40;99.90
37528;DHT22;23372;52.050;4.810;2023-08-24T11:05:19;24.60;99.90
37528;DHT22;23372;52.050;4.810;2023-08-24T11:07:54;24.70;99.90
37528;DHT22;23372;52.050;4.810;2023-08-24T11:10:21;24.70;99.90
37528;DHT22;23372;52.050;4.810;2023-08-24T11:15:42;24.60;99.90
37528;DHT22;23372;52.050;4.810;2023-08-24T11:18:21;24.40;99.90
37528;DHT22;23372;52.050;4.810;2023-08-24T11:20:53;24.40;99.90
37528;DHT22;23372;52.050;4.810;2023-08-24T11:23:20;24.40;99.90
37528;DHT22;23372;52.050;4.810;2023-08-24T11:25:48;24.50;99.90
37528;DHT22;23372;52.050;4.810;2023-08-24T11:28:18;24.60;99.90
37528;DHT22;23372;52.050;4.810;2023-08-24T11:30:45;24.80;99.90
37528;DHT22;23372;52.050;4.810;2023-08-24T11:33:11;24.90;99.90
37528;DHT22;23372;52.050;4.810;2023-08-24T11:35:41;24.90;99.90
37528;DHT22;23372;52.050;4.810;2023-08-24T11:38:07;24.80;99.90
37528;DHT22;23372;52.050;4.810;2023-08-24T11:40:33;24.90;99.90
37528;DHT22;23372;52.050;4.810;2023-08-24T11:42:59;25.00;99.90
37528;DHT22;23372;52.050;4.810;2023-08-24T11:45:33;24.80;99.90
37528;DHT22;23372;52.050;4.810;2023-08-24T11:48:00;24.90;99.90
37528;DHT22;23372;52.050;4.810;2023-08-24T11:50:26;24.80;99.90
37528;DHT22;23372;52.050;4.810;2023-08-24T11:52:53;25.00;99.90
37528;DHT22;23372;52.050;4.810;2023-08-24T11:55:21;25.10;99.90
37528;DHT22;23372;52.050;4.810;2023-08-24T11:57:47;25.50;99.90
37528;DHT22;23372;52.050;4.810;2023-08-24T12:00:13;25.60;99.90
37528;DHT22;23372;52.050;4.810;2023-08-24T12:02:40;25.70;99.90
37528;DHT22;23372;52.050;4.810;2023-08-24T12:05:07;25.60;99.90
37528;DHT22;23372;52.050;4.810;2023-08-24T12:07:33;25.60;99.90
37528;DHT22;23372;52.050;4.810;2023-08-24T12:10:02;25.30;99.90
37528;DHT22;23372;52.050;4.810;2023-08-24T12:12:28;25.10;99.90
37528;DHT22;23372;52.050;4.810;2023-08-24T12:14:55;25.10;99.90
37528;DHT22;23372;52.050;4.810;2023-08-24T12:17:23;25.10;99.90
37528;DHT22;23372;52.050;4.810;2023-08-24T12:20:01;25.00;99.90
37528;DHT22;23372;52.050;4.810;2023-08-24T12:22:31;25.00;99.90
37528;DHT22;23372;52.050;4.810;2023-08-24T12:24:57;25.00;99.90
37528;DHT22;23372;52.050;4.810;2023-08-24T12:27:24;25.10;99.90
37528;DHT22;23372;52.050;4.810;2023-08-24T12:29:51;24.90;99.90
37528;DHT22;23372;52.050;4.810;2023-08-24T12:32:18;25.10;99.90
37528;DHT22;23372;52.050;4.810;2023-08-24T12:34:50;25.10;99.90
37528;DHT22;23372;52.050;4.810;2023-08-24T12:37:20;25.20;99.90
37528;DHT22;23372;52.050;4.810;2023-08-24T12:39:45;25.40;99.90
37528;DHT22;23372;52.050;4.810;2023-08-24T12:42:11;25.90;99.90
37528;DHT22;23372;52.050;4.810;2023-08-24T12:44:37;26.00;99.90
37528;DHT22;23372;52.050;4.810;2023-08-24T12:47:02;25.80;99.90
37528;DHT22;23372;52.050;4.810;2023-08-24T12:49:28;25.60;99.90
37528;DHT22;23372;52.050;4.810;2023-08-24T12:51:54;25.80;99.90
37528;DHT22;23372;52.050;4.810;2023-08-24T12:54:20;26.20;99.90
37528;DHT22;23372;52.050;4.810;2023-08-24T12:56:45;26.30;99.90
37528;DHT22;23372;52.050;4.810;2023-08-24T12:59:11;26.40;99.90
37528;DHT22;23372;52.050;4.810;2023-08-24T13:01:37;26.10;99.90
37528;DHT22;23372;52.050;4.810;2023-08-24T13:04:04;26.40;99.90
37528;DHT22;23372;52.050;4.810;2023-08-24T13:06:29;26.40;99.90
37528;DHT22;23372;52.050;4.810;2023-08-24T13:08:55;26.50;99.90
37528;DHT22;23372;52.050;4.810;2023-08-24T13:11:21;26.50;99.90
37528;DHT22;23372;52.050;4.810;2023-08-24T13:13:47;26.50;99.90
37528;DHT22;23372;52.050;4.810;2023-08-24T13:16:13;26.40;99.90
37528;DHT22;23372;52.050;4.810;2023-08-24T13:18:38;26.60;99.90
37528;DHT22;23372;52.050;4.810;2023-08-24T13:21:04;26.70;99.90
37528;DHT22;23372;52.050;4.810;2023-08-24T13:23:29;26.70;99.90
37528;DHT22;23372;52.050;4.810;2023-08-24T13:25:57;26.40;99.90
37528;DHT22;23372;52.050;4.810;2023-08-24T13:28:23;26.50;99.90
37528;DHT22;23372;52.050;4.810;2023-08-24T13:30:49;26.50;99.90
37528;DHT22;23372;52.050;4.810;2023-08-24T13:33:14;26.60;99.90
37528;DHT22;23372;52.050;4.810;2023-08-24T13:35:40;26.60;99.90
37528;DHT22;23372;52.050;4.810;2023-08-24T13:38:06;26.30;99.90
37528;DHT22;23372;52.050;4.810;2023-08-24T13:40:32;26.10;99.90
37528;DHT22;23372;52.050;4.810;2023-08-24T13:42:57;26.00;99.90
37528;DHT22;23372;52.050;4.810;2023-08-24T13:45:23;26.00;99.90
37528;DHT22;23372;52.050;4.810;2023-08-24T13:47:48;25.90;99.90
37528;DHT22;23372;52.050;4.810;2023-08-24T13:50:14;25.90;99.90
37528;DHT22;23372;52.050;4.810;2023-08-24T13:52:39;25.80;99.90
37528;DHT22;23372;52.050;4.810;2023-08-24T13:55:05;25.90;99.90
37528;DHT22;23372;52.050;4.810;2023-08-24T13:57:31;25.90;99.90
37528;DHT22;23372;52.050;4.810;2023-08-24T13:59:57;25.90;99.90
37528;DHT22;23372;52.050;4.810;2023-08-24T14:02:23;26.00;99.90
37528;DHT22;23372;52.050;4.810;2023-08-24T14:04:48;26.00;99.90
37528;DHT22;23372;52.050;4.810;2023-08-24T14:07:14;25.90;99.90
37528;DHT22;23372;52.050;4.810;2023-08-24T14:09:39;25.90;99.90
37528;DHT22;23372;52.050;4.810;2023-08-24T14:12:05;26.00;99.90
37528;DHT22;23372;52.050;4.810;2023-08-24T14:14:31;25.90;99.90
37528;DHT22;23372;52.050;4.810;2023-08-24T14:16:56;25.90;99.90
37528;DHT22;23372;52.050;4.810;2023-08-24T14:19:23;25.80;99.90
37528;DHT22;23372;52.050;4.810;2023-08-24T14:21:48;25.90;99.90
37528;DHT22;23372;52.050;4.810;2023-08-24T14:24:14;25.80;99.90
37528;DHT22;23372;52.050;4.810;2023-08-24T14:26:40;25.80;99.90
37528;DHT22;23372;52.050;4.810;2023-08-24T14:29:11;25.90;99.90
37528;DHT22;23372;52.050;4.810;2023-08-24T14:31:37;25.70;99.90
37528;DHT22;23372;52.050;4.810;2023-08-24T14:34:03;25.70;99.90
37528;DHT22;23372;52.050;4.810;2023-08-24T14:36:29;25.60;99.90
37528;DHT22;23372;52.050;4.810;2023-08-24T14:38:55;25.60;99.90
37528;DHT22;23372;52.050;4.810;2023-08-24T14:41:21;25.50;99.90
37528;DHT22;23372;52.050;4.810;2023-08-24T14:43:47;25.40;99.90
37528;DHT22;23372;52.050;4.810;2023-08-24T14:46:13;25.40;99.90
37528;DHT22;23372;52.050;4.810;2023-08-24T14:48:38;25.40;99.90
37528;DHT22;23372;52.050;4.810;2023-08-24T14:51:04;25.30;99.90
37528;DHT22;23372;52.050;4.810;2023-08-24T14:53:30;25.40;99.90
37528;DHT22;23372;52.050;4.810;2023-08-24T14:55:57;25.40;99.90
37528;DHT22;23372;52.050;4.810;2023-08-24T14:58:24;25.40;99.90
37528;DHT22;23372;52.050;4.810;2023-08-24T15:00:51;25.50;99.90
37528;DHT22;23372;52.050;4.810;2023-08-24T15:03:17;25.60;99.90
37528;DHT22;23372;52.050;4.810;2023-08-24T15:05:44;25.50;99.90
37528;DHT22;23372;52.050;4.810;2023-08-24T15:08:11;25.60;99.90
37528;DHT22;23372;52.050;4.810;2023-08-24T15:10:37;25.70;99.90
37528;DHT22;23372;52.050;4.810;2023-08-24T15:13:04;25.70;99.90
37528;DHT22;23372;52.050;4.810;2023-08-24T15:15:29;25.60;99.90
37528;DHT22;23372;52.050;4.810;2023-08-24T15:17:55;25.80;99.90
37528;DHT22;23372;52.050;4.810;2023-08-24T15:20:20;25.80;99.90
37528;DHT22;23372;52.050;4.810;2023-08-24T15:22:46;26.00;99.90
37528;DHT22;23372;52.050;4.810;2023-08-24T15:25:12;26.00;99.90
37528;DHT22;23372;52.050;4.810;2023-08-24T15:27:37;25.90;99.90
37528;DHT22;23372;52.050;4.810;2023-08-24T15:30:03;25.70;99.90
37528;DHT22;23372;52.050;4.810;2023-08-24T15:32:31;25.70;99.90
37528;DHT22;23372;52.050;4.810;2023-08-24T15:34:57;25.70;99.90